createdAt,value
2018-12-29T00:01:02.059Z,18.37
2018-12-29T00:03:31.292Z,18.10
2018-12-29T00:06:00.515Z,19.83
2018-12-29T00:08:33.534Z,17.93
2018-12-29T00:11:02.677Z,17.87
2018-12-29T00:13:31.812Z,20.67
2018-12-29T00:16:01.290Z,18.50
2018-12-29T00:18:30.415Z,18.07
2018-12-29T00:20:59.577Z,18.70
2018-12-29T00:23:28.902Z,17.40
2018-12-29T00:25:58.496Z,19.50
2018-12-29T00:28:27.671Z,17.70
2018-12-29T00:30:56.848Z,18.03
2018-12-29T00:33:26.418Z,18.57
2018-12-29T00:35:55.931Z,17.87
2018-12-29T00:38:25.179Z,18.80
2018-12-29T00:40:54.405Z,18.57
2018-12-29T00:43:23.629Z,18.17
2018-12-29T00:45:56.436Z,19.33
2018-12-29T00:48:25.599Z,15.73
2018-12-29T00:50:55.001Z,19.27
2018-12-29T00:53:24.197Z,17.43
2018-12-29T00:55:53.804Z,17.57
2018-12-29T00:58:23.432Z,17.13
2018-12-29T01:00:52.789Z,18.43
2018-12-29T01:03:22.237Z,16.97
2018-12-29T01:05:51.403Z,17.17
2018-12-29T01:08:20.674Z,18.27
2018-12-29T01:10:50.271Z,18.00
2018-12-29T01:13:19.835Z,18.30
2018-12-29T01:15:49.435Z,17.80
2018-12-29T01:18:18.593Z,18.73
2018-12-29T01:20:48.191Z,16.27
2018-12-29T01:23:17.703Z,16.60
2018-12-29T01:25:46.929Z,17.57
2018-12-29T01:28:16.400Z,17.53
2018-12-29T01:30:45.602Z,16.43
2018-12-29T01:33:15.526Z,16.40
2018-12-29T01:35:45.028Z,16.07
2018-12-29T01:38:14.296Z,15.97
2018-12-29T01:40:43.457Z,16.77
2018-12-29T01:43:12.635Z,17.23
2018-12-29T01:45:41.914Z,17.03
2018-12-29T01:48:11.218Z,16.27
2018-12-29T01:50:40.746Z,17.03
2018-12-29T01:53:10.022Z,17.13
2018-12-29T01:55:39.459Z,15.60
2018-12-29T01:58:08.701Z,16.20
2018-12-29T02:00:37.964Z,17.87
2018-12-29T02:03:07.451Z,17.13
2018-12-29T02:05:37.028Z,16.87
2018-12-29T02:08:06.343Z,16.43
2018-12-29T02:10:35.851Z,17.40
2018-12-29T02:13:05.000Z,16.40
2018-12-29T02:15:34.200Z,17.33
2018-12-29T02:18:03.773Z,16.67
2018-12-29T02:20:32.933Z,15.80
2018-12-29T02:23:02.179Z,16.83
2018-12-29T02:25:31.409Z,18.00
2018-12-29T02:28:00.560Z,16.23
2018-12-29T02:30:29.750Z,16.03
2018-12-29T02:32:59.126Z,16.07
2018-12-29T02:35:28.358Z,15.93
2018-12-29T02:37:57.671Z,15.93
2018-12-29T02:40:27.197Z,16.43
2018-12-29T02:42:56.341Z,15.17
2018-12-29T02:45:32.807Z,15.63
2018-12-29T02:47:56.692Z,15.00
2018-12-29T02:50:26.165Z,15.13
2018-12-29T02:52:55.437Z,14.83
2018-12-29T02:55:24.957Z,16.73
2018-12-29T02:57:54.173Z,15.60
2018-12-29T03:00:23.457Z,15.77
2018-12-29T03:02:52.943Z,15.87
2018-12-29T03:05:22.193Z,16.67
2018-12-29T03:07:51.540Z,16.63
2018-12-29T03:10:20.713Z,16.87
2018-12-29T03:12:50.278Z,15.73
2018-12-29T03:15:19.466Z,15.77
2018-12-29T03:17:48.629Z,16.97
2018-12-29T03:20:17.775Z,15.70
2018-12-29T03:22:47.017Z,15.50
2018-12-29T03:25:16.203Z,16.10
2018-12-29T03:27:45.826Z,15.57
2018-12-29T03:30:15.031Z,17.10
2018-12-29T03:32:44.867Z,17.00
2018-12-29T03:35:14.470Z,15.33
2018-12-29T03:37:43.736Z,15.80
2018-12-29T03:40:12.931Z,14.77
2018-12-29T03:42:42.191Z,16.23
2018-12-29T03:45:11.511Z,16.67
2018-12-29T03:47:40.980Z,17.27
2018-12-29T03:50:10.514Z,15.90
2018-12-29T03:52:39.686Z,14.50
2018-12-29T03:55:09.643Z,15.23
2018-12-29T03:57:38.875Z,15.17
2018-12-29T04:00:08.430Z,16.97
2018-12-29T04:02:37.600Z,15.30
2018-12-29T04:05:07.151Z,15.30
2018-12-29T04:07:36.352Z,15.00
2018-12-29T04:10:09.824Z,16.23
2018-12-29T04:12:40.875Z,15.33
2018-12-29T04:15:10.191Z,15.50
2018-12-29T04:17:39.413Z,15.53
2018-12-29T04:20:08.608Z,15.80
2018-12-29T04:22:37.791Z,15.90
2018-12-29T04:25:07.035Z,15.33
2018-12-29T04:27:36.248Z,14.73
2018-12-29T04:30:05.821Z,16.50
2018-12-29T04:32:35.415Z,15.33
2018-12-29T04:35:04.626Z,14.97
2018-12-29T04:37:34.122Z,15.87
2018-12-29T04:40:03.635Z,14.97
2018-12-29T04:42:32.840Z,14.77
2018-12-29T04:45:02.061Z,14.67
2018-12-29T04:47:31.963Z,14.70
2018-12-29T04:50:01.117Z,13.13
2018-12-29T04:52:30.656Z,14.27
2018-12-29T04:54:59.888Z,14.33
2018-12-29T04:57:29.382Z,14.13
2018-12-29T04:59:58.523Z,13.63
2018-12-29T05:02:28.066Z,14.30
2018-12-29T05:04:57.307Z,14.47
2018-12-29T05:07:26.859Z,14.17
2018-12-29T05:09:56.005Z,13.93
2018-12-29T05:12:25.192Z,14.03
2018-12-29T05:14:54.349Z,12.60
2018-12-29T05:17:24.047Z,13.97
2018-12-29T05:19:53.210Z,13.70
2018-12-29T05:22:22.767Z,13.93
2018-12-29T05:24:51.990Z,13.60
2018-12-29T05:27:21.417Z,14.90
2018-12-29T05:29:50.560Z,14.00
2018-12-29T05:32:19.787Z,13.40
2018-12-29T05:34:49.320Z,14.77
2018-12-29T05:37:18.535Z,14.43
2018-12-29T05:39:47.681Z,15.10
2018-12-29T05:42:16.862Z,13.87
2018-12-29T05:44:46.011Z,13.00
2018-12-29T05:47:15.227Z,13.57
2018-12-29T05:49:44.426Z,12.97
2018-12-29T05:52:13.589Z,13.87
2018-12-29T05:54:42.732Z,14.03
2018-12-29T05:57:12.009Z,13.57
2018-12-29T05:59:41.234Z,14.40
2018-12-29T06:02:10.519Z,15.83
2018-12-29T06:04:40.109Z,14.37
2018-12-29T06:07:09.260Z,14.90
2018-12-29T06:09:38.401Z,13.97
2018-12-29T06:12:07.923Z,14.07
2018-12-29T06:14:37.082Z,14.83
2018-12-29T06:17:06.229Z,15.13
2018-12-29T06:19:35.414Z,14.47
2018-12-29T06:22:04.628Z,14.33
2018-12-29T06:24:34.147Z,14.73
2018-12-29T06:27:03.803Z,14.70
2018-12-29T06:29:33.234Z,14.90
2018-12-29T06:32:02.384Z,14.10
2018-12-29T06:34:31.550Z,14.63
2018-12-29T06:37:01.021Z,14.53
2018-12-29T06:39:30.146Z,14.70
2018-12-29T06:41:59.423Z,14.70
2018-12-29T06:44:28.657Z,13.83
2018-12-29T06:46:57.811Z,15.17
2018-12-29T06:49:27.073Z,14.80
2018-12-29T06:51:56.227Z,14.77
2018-12-29T06:54:25.447Z,14.50
2018-12-29T06:56:55.063Z,15.03
2018-12-29T06:59:24.280Z,15.20
2018-12-29T07:01:53.839Z,16.87
2018-12-29T07:04:23.097Z,15.53
2018-12-29T07:06:52.240Z,14.33
2018-12-29T07:09:21.769Z,15.47
2018-12-29T07:11:51.359Z,15.13
2018-12-29T07:14:20.516Z,15.33
2018-12-29T07:16:49.684Z,16.20
2018-12-29T07:19:18.868Z,13.97
2018-12-29T07:21:48.033Z,15.67
2018-12-29T07:24:17.176Z,14.60
2018-12-29T07:26:46.342Z,16.80
2018-12-29T07:29:15.488Z,14.20
2018-12-29T07:31:44.632Z,16.03
2018-12-29T07:34:14.162Z,15.23
2018-12-29T07:36:43.397Z,14.67
2018-12-29T07:39:12.938Z,15.43
2018-12-29T07:41:42.124Z,14.93
2018-12-29T07:44:11.264Z,16.43
2018-12-29T07:46:40.442Z,16.20
2018-12-29T07:49:09.633Z,15.57
2018-12-29T07:51:38.854Z,15.27
2018-12-29T07:54:08.171Z,15.10
2018-12-29T07:56:37.353Z,16.07
2018-12-29T07:59:06.524Z,16.33
2018-12-29T08:01:35.866Z,16.37
2018-12-29T08:04:05.165Z,18.20
2018-12-29T08:06:34.429Z,16.60
2018-12-29T08:09:04.536Z,17.03
2018-12-29T08:11:33.784Z,16.30
2018-12-29T08:14:03.008Z,15.77
2018-12-29T08:16:32.259Z,15.30
2018-12-29T08:19:01.516Z,14.90
2018-12-29T08:21:30.763Z,16.23
2018-12-29T08:23:59.924Z,17.23
2018-12-29T08:26:29.109Z,15.50
2018-12-29T08:28:58.268Z,14.90
2018-12-29T08:31:27.485Z,16.27
2018-12-29T08:33:56.675Z,15.27
2018-12-29T08:36:25.853Z,14.67
2018-12-29T08:38:55.358Z,15.67
2018-12-29T08:41:24.577Z,15.70
2018-12-29T08:43:54.233Z,16.03
2018-12-29T08:46:23.392Z,16.60
2018-12-29T08:48:52.920Z,15.40
2018-12-29T08:51:22.066Z,14.60
2018-12-29T08:53:51.745Z,15.30
2018-12-29T08:56:20.935Z,15.10
2018-12-29T08:58:50.459Z,14.63
2018-12-29T09:01:20.045Z,14.47
2018-12-29T09:06:37.478Z,13.27
2018-12-29T09:09:07.621Z,15.20
2018-12-29T09:11:37.059Z,15.23
2018-12-29T09:14:06.269Z,14.73
2018-12-29T09:16:53.568Z,15.47
2018-12-29T09:19:06.928Z,14.80
2018-12-29T09:21:36.483Z,15.10
2018-12-29T09:24:06.085Z,15.57
2018-12-29T09:26:35.219Z,15.00
2018-12-29T09:29:04.772Z,15.33
2018-12-29T09:31:34.349Z,14.40
2018-12-29T09:34:03.597Z,15.90
2018-12-29T09:36:33.038Z,15.90
2018-12-29T09:39:02.174Z,14.40
2018-12-29T09:41:31.396Z,14.90
2018-12-29T09:44:00.987Z,14.97
2018-12-29T09:46:30.158Z,16.03
2018-12-29T09:51:31.237Z,14.80
2018-12-29T09:54:00.803Z,15.20
2018-12-29T09:56:30.029Z,14.80
2018-12-29T09:58:59.496Z,16.03
2018-12-29T10:01:29.402Z,15.13
2018-12-29T10:03:58.619Z,15.63
2018-12-29T10:06:27.794Z,14.07
2018-12-29T10:08:56.959Z,13.70
2018-12-29T10:11:26.105Z,14.97
2018-12-29T10:13:55.298Z,14.47
2018-12-29T10:16:24.539Z,14.97
2018-12-29T10:18:53.949Z,14.77
2018-12-29T10:21:23.131Z,15.37
2018-12-29T10:23:52.285Z,14.63
2018-12-29T10:26:21.905Z,15.70
2018-12-29T10:28:51.183Z,14.20
2018-12-29T10:31:20.353Z,14.63
2018-12-29T10:33:49.948Z,15.33
2018-12-29T10:36:19.166Z,14.50
2018-12-29T10:38:48.331Z,14.67
2018-12-29T10:41:17.662Z,13.77
2018-12-29T10:43:47.376Z,13.63
2018-12-29T10:46:16.885Z,14.87
2018-12-29T10:48:46.123Z,13.57
2018-12-29T10:51:15.384Z,14.43
2018-12-29T10:53:44.532Z,14.10
2018-12-29T10:56:14.070Z,15.07
2018-12-29T10:58:43.258Z,14.53
2018-12-29T11:01:12.766Z,13.50
2018-12-29T11:03:44.744Z,15.17
2018-12-29T11:06:14.004Z,15.20
2018-12-29T11:08:43.144Z,14.93
2018-12-29T11:11:12.762Z,14.17
2018-12-29T11:13:42.488Z,14.90
2018-12-29T11:16:15.498Z,14.60
2018-12-29T11:18:44.678Z,15.73
2018-12-29T11:21:13.880Z,15.10
2018-12-29T11:23:43.066Z,15.53
2018-12-29T11:26:12.652Z,15.50
2018-12-29T11:28:41.816Z,14.27
2018-12-29T11:31:10.990Z,14.97
2018-12-29T11:33:40.325Z,15.00
2018-12-29T11:36:09.555Z,14.90
2018-12-29T11:38:39.048Z,13.57
2018-12-29T11:41:08.642Z,13.93
2018-12-29T11:43:38.019Z,14.33
2018-12-29T11:46:07.259Z,15.60
2018-12-29T11:48:36.455Z,16.27
2018-12-29T11:51:05.655Z,15.80
2018-12-29T11:53:34.889Z,14.57
2018-12-29T11:56:04.241Z,15.13
2018-12-29T11:58:33.406Z,14.87
2018-12-29T12:01:02.715Z,14.73
2018-12-29T12:03:32.307Z,15.37
2018-12-29T12:06:02.612Z,14.97
2018-12-29T12:08:32.240Z,15.00
2018-12-29T12:11:01.513Z,14.47
2018-12-29T12:13:30.679Z,15.27
2018-12-29T12:16:00.535Z,15.17
2018-12-29T12:18:29.825Z,14.73
2018-12-29T12:23:34.438Z,15.57
2018-12-29T12:26:03.683Z,14.70
2018-12-29T12:28:32.902Z,15.17
2018-12-29T12:31:02.599Z,14.47
2018-12-29T12:33:31.805Z,14.23
2018-12-29T12:38:29.959Z,14.70
2018-12-29T12:40:59.245Z,13.17
2018-12-29T12:43:28.486Z,14.10
2018-12-29T12:45:58.132Z,15.33
2018-12-29T12:48:27.393Z,14.80
2018-12-29T12:53:25.907Z,15.73
2018-12-29T12:55:55.222Z,14.50
2018-12-29T12:58:25.131Z,14.40
2018-12-29T13:00:54.716Z,14.50
2018-12-29T13:03:24.322Z,14.00
2018-12-29T13:08:25.748Z,15.73
2018-12-29T13:10:55.055Z,14.27
2018-12-29T13:13:24.215Z,14.77
2018-12-29T13:15:54.105Z,14.63
2018-12-29T13:21:08.776Z,15.17
2018-12-29T13:23:38.027Z,15.53
2018-12-29T13:26:07.552Z,15.97
2018-12-29T13:28:37.139Z,15.70
2018-12-29T13:31:06.574Z,15.97
2018-12-29T13:36:07.927Z,15.23
2018-12-29T13:38:37.604Z,15.77
2018-12-29T13:41:06.848Z,15.57
2018-12-29T13:43:36.109Z,16.17
2018-12-29T13:46:05.666Z,15.77
2018-12-29T13:51:07.448Z,15.27
2018-12-29T13:53:36.695Z,16.87
2018-12-29T13:56:06.028Z,15.43
2018-12-29T13:58:35.276Z,17.03
2018-12-29T14:01:04.940Z,16.93
2018-12-29T14:03:34.245Z,16.90
2018-12-29T14:06:03.510Z,15.50
2018-12-29T14:08:32.825Z,17.03
2018-12-29T14:11:02.471Z,16.27
2018-12-29T14:13:32.295Z,16.50
2018-12-29T14:16:01.553Z,17.53
2018-12-29T14:18:31.072Z,16.33
2018-12-29T14:21:00.433Z,16.87
2018-12-29T14:23:29.674Z,17.10
2018-12-29T14:25:58.947Z,17.13
2018-12-29T14:28:28.499Z,17.63
2018-12-29T14:30:58.122Z,17.70
2018-12-29T14:33:27.352Z,18.03
2018-12-29T14:35:57.263Z,17.67
2018-12-29T14:38:26.422Z,16.63
2018-12-29T14:40:56.464Z,18.70
2018-12-29T14:43:25.760Z,16.30
2018-12-29T14:45:55.454Z,17.40
2018-12-29T14:48:24.778Z,17.13
2018-12-29T14:50:54.464Z,17.00
2018-12-29T14:53:23.611Z,17.13
2018-12-29T14:55:52.850Z,17.57
2018-12-29T14:58:22.561Z,18.17
2018-12-29T15:00:51.807Z,18.67
2018-12-29T15:03:21.175Z,18.83
2018-12-29T15:05:50.357Z,17.67
2018-12-29T15:08:19.596Z,17.53
2018-12-29T15:10:48.840Z,18.50
2018-12-29T15:13:18.506Z,18.70
2018-12-29T15:15:47.738Z,18.07
2018-12-29T15:18:17.354Z,17.90
2018-12-29T15:20:47.095Z,17.43
2018-12-29T15:23:16.724Z,17.83
2018-12-29T15:25:46.025Z,17.87
2018-12-29T15:28:15.724Z,18.77
2018-12-29T15:30:46.882Z,19.33
2018-12-29T15:33:16.259Z,18.67
2018-12-29T15:35:45.609Z,19.23
2018-12-29T15:38:15.197Z,18.43
2018-12-29T15:40:44.792Z,18.60
2018-12-29T15:43:13.979Z,18.97
2018-12-29T15:45:43.295Z,18.63
2018-12-29T15:48:12.580Z,17.87
2018-12-29T15:50:41.946Z,17.97
2018-12-29T15:53:11.419Z,18.43
2018-12-29T15:55:41.103Z,18.50
2018-12-29T15:58:10.648Z,19.47
2018-12-29T16:00:40.252Z,19.53
2018-12-29T16:03:11.391Z,18.57
2018-12-29T16:05:41.109Z,18.23
2018-12-29T16:08:10.746Z,19.47
2018-12-29T16:10:39.988Z,19.73
2018-12-29T16:13:09.308Z,19.07
2018-12-29T16:15:39.340Z,18.63
2018-12-29T16:18:09.316Z,19.87
2018-12-29T16:20:38.649Z,18.17
2018-12-29T16:23:07.971Z,18.97
2018-12-29T16:25:37.275Z,18.80
2018-12-29T16:28:06.867Z,18.33
2018-12-29T16:30:36.483Z,18.50
2018-12-29T16:33:05.812Z,17.23
2018-12-29T16:35:35.454Z,17.60
2018-12-29T16:38:05.054Z,17.97
2018-12-29T16:40:34.378Z,17.10
2018-12-29T16:43:04.033Z,14.97
2018-12-29T16:45:33.288Z,15.87
2018-12-29T16:48:02.599Z,15.37
2018-12-29T16:50:31.981Z,14.47
2018-12-29T16:55:45.672Z,14.17
2018-12-29T16:58:14.990Z,13.33
2018-12-29T17:00:44.275Z,13.70
2018-12-29T17:03:13.650Z,14.53
2018-12-29T17:05:42.936Z,14.20
2018-12-29T17:10:41.407Z,13.77
2018-12-29T17:13:10.643Z,15.50
2018-12-29T17:15:39.974Z,14.23
2018-12-29T17:18:09.460Z,14.57
2018-12-29T17:20:39.571Z,14.50
2018-12-29T17:25:44.001Z,14.33
2018-12-29T17:28:13.553Z,14.93
2018-12-29T17:30:42.775Z,14.57
2018-12-29T17:33:12.138Z,15.07
2018-12-29T17:35:41.475Z,15.63
2018-12-29T17:38:30.041Z,14.23
2018-12-29T17:40:59.566Z,13.43
2018-12-29T17:43:28.873Z,14.47
2018-12-29T17:45:58.285Z,14.00
2018-12-29T17:48:30.580Z,13.33
2018-12-29T17:53:35.064Z,11.97
2018-12-29T17:56:04.325Z,12.23
2018-12-29T17:58:33.640Z,11.90
2018-12-29T18:01:03.037Z,12.23
2018-12-29T18:03:32.626Z,11.07
2018-12-29T18:06:08.424Z,10.80
2018-12-29T18:08:38.041Z,11.40
2018-12-29T18:11:07.434Z,11.20
2018-12-29T18:13:36.992Z,10.33
2018-12-29T18:16:06.312Z,9.80
2018-12-29T18:18:35.549Z,9.33
2018-12-29T18:21:04.899Z,8.80
2018-12-29T18:23:34.812Z,7.30
2018-12-29T18:26:04.310Z,7.27
2018-12-29T18:28:34.044Z,6.70
2018-12-29T18:31:03.298Z,5.67
2018-12-29T18:33:37.228Z,4.83
2018-12-29T18:36:03.946Z,4.90
2018-12-29T18:38:33.187Z,4.87
2018-12-29T18:41:02.520Z,5.00
2018-12-29T18:43:31.926Z,4.80
2018-12-29T18:46:01.356Z,5.40
2018-12-29T18:48:30.598Z,5.57
2018-12-29T18:50:59.903Z,5.33
2018-12-29T18:53:29.120Z,4.83
2018-12-29T18:55:58.428Z,4.90
2018-12-29T18:58:27.683Z,5.00
2018-12-29T19:00:57.046Z,4.80
2018-12-29T19:03:26.293Z,5.10
2018-12-29T19:05:56.248Z,5.53
2018-12-29T19:08:25.755Z,5.30
2018-12-29T19:10:55.432Z,5.97
2018-12-29T19:13:25.133Z,5.17
2018-12-29T19:15:54.792Z,4.80
2018-12-29T19:18:24.111Z,5.23
2018-12-29T19:20:53.375Z,4.93
2018-12-29T19:23:22.918Z,6.03
2018-12-29T19:25:52.547Z,5.90
2018-12-29T19:28:22.116Z,4.90
2018-12-29T19:30:51.434Z,3.93
2018-12-29T19:33:21.288Z,4.00
2018-12-29T19:35:51.211Z,4.10
2018-12-29T19:38:20.921Z,4.00
2018-12-29T19:40:51.049Z,4.57
2018-12-29T19:43:20.853Z,4.07
2018-12-29T19:45:50.442Z,3.77
2018-12-29T19:48:19.752Z,4.10
2018-12-29T19:50:49.200Z,4.23
2018-12-29T19:53:18.719Z,4.00
2018-12-29T19:55:48.031Z,3.60
2018-12-29T19:58:17.313Z,3.13
2018-12-29T20:00:47.099Z,3.37
2018-12-29T20:03:16.899Z,3.33
2018-12-29T20:05:46.306Z,3.80
2018-12-29T20:08:15.956Z,4.23
2018-12-29T20:10:45.278Z,4.70
2018-12-29T20:13:14.528Z,4.00
2018-12-29T20:15:43.698Z,3.83
2018-12-29T20:18:12.849Z,3.73
2018-12-29T20:20:42.245Z,3.90
2018-12-29T20:23:11.531Z,3.67
2018-12-29T20:25:41.191Z,3.40
2018-12-29T20:28:10.518Z,3.90
2018-12-29T20:30:40.146Z,3.17
2018-12-29T20:33:09.832Z,3.77
2018-12-29T20:35:39.408Z,3.13
2018-12-29T20:38:08.744Z,3.23
2018-12-29T20:40:38.382Z,3.30
2018-12-29T20:43:07.658Z,3.10
2018-12-29T20:45:36.983Z,2.83
2018-12-29T20:48:06.700Z,3.47
2018-12-29T20:50:37.203Z,2.53
2018-12-29T20:53:06.443Z,2.60
2018-12-29T20:55:35.754Z,1.93
2018-12-29T20:58:05.023Z,2.10
2018-12-29T21:00:34.247Z,2.37
2018-12-29T21:03:03.546Z,2.33
2018-12-29T21:05:32.811Z,2.10
2018-12-29T21:08:02.127Z,2.40
2018-12-29T21:10:32.469Z,2.73
2018-12-29T21:13:02.010Z,2.63
2018-12-29T21:15:31.289Z,2.33
2018-12-29T21:18:00.840Z,2.00
2018-12-29T21:20:30.098Z,2.17
2018-12-29T21:22:59.419Z,4.43
2018-12-29T21:25:28.696Z,4.10
2018-12-29T21:27:58.591Z,2.60
2018-12-29T21:30:27.884Z,2.17
2018-12-29T21:32:57.119Z,2.43
2018-12-29T21:35:26.377Z,2.53
2018-12-29T21:37:56.335Z,2.73
2018-12-29T21:40:26.043Z,1.70
2018-12-29T21:42:55.381Z,1.57
2018-12-29T21:45:24.708Z,1.47
2018-12-29T21:47:54.064Z,1.40
2018-12-29T21:50:25.651Z,2.10
2018-12-29T21:52:55.143Z,2.73
2018-12-29T21:55:24.467Z,3.23
2018-12-29T21:57:54.218Z,2.10
2018-12-29T22:00:23.847Z,1.57
2018-12-29T22:02:53.435Z,1.63
2018-12-29T22:05:23.078Z,5.43
2018-12-29T22:07:53.637Z,3.17
2018-12-29T22:10:22.850Z,3.77
2018-12-29T22:12:52.105Z,2.33
2018-12-29T22:15:21.407Z,2.30
2018-12-29T22:17:50.628Z,2.50
2018-12-29T22:20:19.920Z,1.77
2018-12-29T22:22:49.119Z,1.83
2018-12-29T22:25:19.148Z,2.30
2018-12-29T22:27:48.797Z,2.27
2018-12-29T22:30:18.019Z,1.93
2018-12-29T22:32:47.324Z,1.37
2018-12-29T22:35:16.925Z,1.57
2018-12-29T22:37:46.240Z,1.90
2018-12-29T22:40:15.469Z,1.80
2018-12-29T22:42:44.727Z,1.93
2018-12-29T22:45:13.939Z,1.80
2018-12-29T22:47:43.513Z,1.60
2018-12-29T22:50:13.538Z,1.80
2018-12-29T22:52:42.832Z,1.70
2018-12-29T22:55:12.046Z,1.80
2018-12-29T22:57:41.501Z,1.67
2018-12-29T23:00:19.048Z,2.23
2018-12-29T23:02:48.671Z,2.23
2018-12-29T23:05:18.311Z,1.77
2018-12-29T23:07:47.592Z,1.90
2018-12-29T23:10:16.836Z,1.67
2018-12-29T23:12:46.050Z,2.43
2018-12-29T23:15:15.280Z,2.10
2018-12-29T23:17:44.528Z,2.47
2018-12-29T23:20:13.779Z,2.20
2018-12-29T23:22:42.983Z,1.70
2018-12-29T23:25:12.698Z,1.83
2018-12-29T23:27:42.327Z,1.73
2018-12-29T23:30:11.561Z,1.80
2018-12-29T23:32:41.568Z,1.70
2018-12-29T23:35:10.862Z,1.63
2018-12-29T23:37:40.733Z,2.03
2018-12-29T23:40:11.166Z,2.23
2018-12-29T23:42:40.442Z,2.17
2018-12-29T23:45:10.058Z,2.93
2018-12-29T23:47:39.585Z,2.47
2018-12-29T23:50:09.249Z,2.40
2018-12-29T23:52:57.963Z,2.67
2018-12-29T23:55:27.584Z,2.20
2018-12-29T23:57:56.798Z,2.33
